首页
METAR-TAF:

METAR-TAF

机场 :

芒特沙斯塔, 加利福尼亚州, 美国

纬度: 41-18-57N, 经度: 122-18-58W, 海拔: 1077米

当前天气观测

该预报发布于40分钟前的23:13 UTC
风速3节,风向多变
温度 2°C
湿度 93%
气压 1022 hPa
能見度: 14.5公里
多云层高于400英尺

METAR: KMHS 092313Z AUTO VRB03KT 9SM BKN004 02/01 A3017 RMK AO2 T00220011

时间: 15:53 (23:53 UTC)


TAF: 丢失

超过4000个机场的气象观测和天气预报(METAR&TAF报告)。

可查询的气象台以黄色和红色小点在地图上表示。

将鼠标移到小点上方,可查看气象台名称。

然后点击查看天气观测和预报。

如需切换地图:点击带黑十字的绿色按钮放大地图;点击带横线的绿色按钮缩小地图;或者点击绿色箭头查看邻近地区的地图。


METAR-TAF: